createdAt,value
2023-05-19T00:00:19.669Z,32.40
2023-05-19T00:03:09.557Z,29.60
2023-05-19T00:05:45.633Z,31.20
2023-05-19T00:08:18.046Z,30.00
2023-05-19T00:10:47.353Z,31.40
2023-05-19T00:13:16.542Z,20.60
2023-05-19T00:15:46.113Z,25.80
2023-05-19T00:18:16.609Z,30.40
2023-05-19T00:20:45.635Z,21.20
2023-05-19T00:23:15.674Z,21.00
2023-05-19T00:25:44.970Z,20.20
2023-05-19T00:28:13.478Z,19.00
2023-05-19T00:30:43.762Z,25.80
2023-05-19T00:33:12.583Z,17.40
2023-05-19T00:35:41.802Z,19.60
2023-05-19T00:38:10.492Z,19.60
2023-05-19T00:40:41.369Z,17.00
2023-05-19T00:43:10.031Z,17.80
2023-05-19T00:45:39.026Z,19.00
2023-05-19T00:48:07.790Z,18.60
2023-05-19T00:50:36.874Z,20.20
2023-05-19T00:53:05.594Z,18.40
2023-05-19T00:55:36.639Z,20.40
2023-05-19T00:58:07.472Z,19.80
2023-05-19T01:00:37.528Z,19.00
2023-05-19T01:03:11.478Z,16.80
2023-05-19T01:05:44.863Z,20.80
2023-05-19T01:08:13.746Z,17.80
2023-05-19T01:10:43.056Z,21.80
2023-05-19T01:13:13.254Z,19.00
2023-05-19T01:16:08.999Z,18.20
2023-05-19T01:18:46.821Z,19.40
2023-05-19T01:21:48.688Z,18.80
2023-05-19T01:24:46.915Z,20.60
2023-05-19T01:27:44.135Z,21.20
2023-05-19T01:30:30.102Z,20.80
2023-05-19T01:33:02.510Z,18.80
2023-05-19T01:35:33.053Z,20.00
2023-05-19T01:38:03.316Z,20.40
2023-05-19T01:40:33.701Z,18.40
2023-05-19T01:43:03.579Z,18.60
2023-05-19T01:45:35.749Z,17.00
2023-05-19T01:48:09.254Z,20.00
2023-05-19T01:50:41.373Z,21.20
2023-05-19T01:53:10.690Z,20.80
2023-05-19T01:55:45.891Z,19.20
2023-05-19T01:58:21.887Z,16.00
2023-05-19T02:00:59.422Z,19.20
2023-05-19T02:03:46.226Z,20.40
2023-05-19T02:06:28.892Z,17.20
2023-05-19T02:09:02.159Z,20.80
2023-05-19T02:11:38.111Z,19.80
2023-05-19T02:14:15.002Z,16.00
2023-05-19T02:16:48.415Z,23.40
2023-05-19T02:19:25.812Z,19.60
2023-05-19T02:21:56.788Z,25.40
2023-05-19T02:24:26.130Z,20.60
2023-05-19T02:26:55.453Z,19.00
2023-05-19T02:29:24.497Z,20.60
2023-05-19T02:31:54.621Z,20.60
2023-05-19T02:34:23.630Z,21.40
2023-05-19T02:36:52.311Z,17.80
2023-05-19T02:39:21.160Z,20.00
2023-05-19T02:41:50.053Z,22.40
2023-05-19T02:44:19.110Z,19.20
2023-05-19T02:46:47.873Z,20.40
2023-05-19T02:49:18.296Z,27.40
2023-05-19T02:51:46.986Z,22.40
2023-05-19T02:54:16.090Z,22.40
2023-05-19T02:56:44.622Z,19.80
2023-05-19T02:59:13.761Z,22.80
2023-05-19T03:01:42.434Z,22.20
2023-05-19T03:04:11.612Z,23.00
2023-05-19T03:06:42.296Z,19.00
2023-05-19T03:09:11.613Z,25.00
2023-05-19T03:11:40.301Z,65.50
2023-05-19T03:14:10.078Z,35.00
2023-05-19T03:16:41.344Z,28.40
2023-05-19T03:19:10.859Z,22.60
2023-05-19T03:21:41.781Z,29.20
2023-05-19T03:24:10.738Z,29.80
2023-05-19T03:26:39.516Z,31.00
2023-05-19T03:29:08.587Z,28.40
2023-05-19T03:31:38.897Z,25.60
2023-05-19T03:34:07.855Z,25.80
2023-05-19T03:36:39.902Z,27.80
2023-05-19T03:39:15.373Z,17.40
2023-05-19T03:41:44.356Z,27.40
2023-05-19T03:44:13.226Z,28.20
2023-05-19T03:46:42.419Z,33.60
2023-05-19T03:49:30.641Z,35.20
2023-05-19T03:52:31.215Z,34.20
2023-05-19T03:55:16.485Z,31.60
2023-05-19T03:57:45.524Z,35.20
2023-05-19T04:00:15.330Z,39.60
2023-05-19T04:02:43.996Z,34.20
2023-05-19T04:05:12.959Z,24.20
2023-05-19T04:07:41.768Z,26.40
2023-05-19T04:10:11.412Z,29.40
2023-05-19T04:12:41.393Z,59.50
2023-05-19T04:15:12.521Z,35.00
2023-05-19T04:17:42.369Z,17.80
2023-05-19T04:20:12.953Z,26.00
2023-05-19T04:22:41.569Z,28.80
2023-05-19T04:25:12.004Z,38.20
2023-05-19T04:27:43.022Z,26.00
2023-05-19T04:30:18.539Z,45.00
2023-05-19T04:32:47.573Z,42.00
2023-05-19T04:35:17.684Z,35.80
2023-05-19T04:37:46.884Z,33.20
2023-05-19T04:40:17.517Z,38.60
2023-05-19T04:42:49.903Z,29.80
2023-05-19T04:45:19.805Z,36.60
2023-05-19T04:47:52.826Z,30.00
2023-05-19T04:50:21.842Z,30.60
2023-05-19T04:52:50.584Z,23.60
2023-05-19T04:55:19.844Z,23.00
2023-05-19T04:57:51.661Z,27.40
2023-05-19T05:00:22.982Z,28.20
2023-05-19T05:02:59.761Z,16.20
2023-05-19T05:05:32.087Z,23.40
2023-05-19T05:08:01.228Z,21.80
2023-05-19T05:10:34.388Z,15.60
2023-05-19T05:13:05.400Z,18.00
2023-05-19T05:15:35.682Z,18.40
2023-05-19T05:18:05.860Z,18.00
2023-05-19T05:20:35.751Z,19.20
2023-05-19T05:23:04.962Z,20.20
2023-05-19T05:25:36.230Z,18.20
2023-05-19T05:28:06.827Z,18.20
2023-05-19T05:30:38.441Z,19.80
2023-05-19T05:33:09.614Z,18.60
2023-05-19T05:35:40.931Z,20.40
2023-05-19T05:38:12.214Z,21.00
2023-05-19T05:40:42.492Z,20.20
2023-05-19T05:43:13.190Z,18.80
2023-05-19T05:45:48.659Z,19.40
2023-05-19T05:48:18.030Z,20.40
2023-05-19T05:50:47.397Z,17.60
2023-05-19T05:53:21.906Z,19.80
2023-05-19T05:55:55.020Z,16.60
2023-05-19T05:58:30.049Z,20.40
2023-05-19T06:00:59.774Z,22.20
2023-05-19T06:03:28.763Z,23.00
2023-05-19T06:06:03.338Z,22.40
2023-05-19T06:08:32.057Z,20.20
2023-05-19T06:11:01.433Z,19.00
2023-05-19T06:13:33.133Z,13.00
2023-05-19T06:16:02.867Z,18.40
2023-05-19T06:18:34.914Z,17.00
2023-05-19T06:21:04.441Z,17.80
2023-05-19T06:23:33.205Z,18.00
2023-05-19T06:26:02.475Z,21.20
2023-05-19T06:28:33.822Z,18.80
2023-05-19T06:31:02.887Z,14.00
2023-05-19T06:33:51.954Z,17.20
2023-05-19T06:36:22.903Z,20.20
2023-05-19T06:38:52.999Z,15.00
2023-05-19T06:41:22.725Z,15.20
2023-05-19T06:43:54.697Z,12.00
2023-05-19T06:46:24.223Z,11.80
2023-05-19T06:48:52.826Z,11.40
2023-05-19T06:51:25.092Z,18.40
2023-05-19T06:53:57.647Z,18.60
2023-05-19T06:56:26.925Z,15.00
2023-05-19T06:58:56.935Z,15.20
2023-05-19T07:01:32.417Z,13.20
2023-05-19T07:04:01.985Z,14.20
2023-05-19T07:06:32.062Z,11.60
2023-05-19T07:09:00.723Z,11.80
2023-05-19T07:11:30.846Z,15.00
2023-05-19T07:14:01.371Z,12.60
2023-05-19T07:16:33.547Z,9.80
2023-05-19T07:19:02.316Z,10.00
2023-05-19T07:21:31.643Z,11.40
2023-05-19T07:24:00.387Z,13.20
2023-05-19T07:26:30.716Z,14.60
2023-05-19T07:28:59.491Z,14.80
2023-05-19T07:31:29.991Z,14.60
2023-05-19T07:33:58.814Z,14.00
2023-05-19T07:36:28.087Z,16.60
2023-05-19T07:38:56.875Z,13.40
2023-05-19T07:41:26.275Z,20.20
2023-05-19T07:43:55.006Z,24.00
2023-05-19T07:46:24.086Z,17.40
2023-05-19T07:48:54.149Z,21.00
2023-05-19T07:51:23.075Z,21.80
2023-05-19T07:53:51.838Z,19.40
2023-05-19T07:56:21.330Z,25.20
2023-05-19T07:58:50.147Z,24.80
2023-05-19T08:01:19.010Z,16.40
2023-05-19T08:03:47.727Z,20.80
2023-05-19T08:06:18.064Z,35.40
2023-05-19T08:08:47.369Z,19.20
2023-05-19T08:11:16.574Z,26.00
2023-05-19T08:13:47.669Z,19.80
2023-05-19T08:16:16.833Z,18.80
2023-05-19T08:18:45.610Z,17.80
2023-05-19T08:21:14.640Z,17.60
2023-05-19T08:23:44.605Z,18.60
2023-05-19T08:26:13.713Z,15.40
2023-05-19T08:28:42.226Z,20.80
2023-05-19T08:31:11.344Z,17.40
2023-05-19T08:33:40.261Z,15.40
2023-05-19T08:36:09.320Z,17.00
2023-05-19T08:38:38.069Z,19.80
2023-05-19T08:41:08.545Z,22.00
2023-05-19T08:43:37.227Z,19.20
2023-05-19T08:46:08.326Z,15.80
2023-05-19T08:48:40.528Z,20.80
2023-05-19T08:51:21.886Z,21.60
2023-05-19T08:53:55.297Z,17.80
2023-05-19T08:56:26.935Z,23.40
2023-05-19T08:58:59.835Z,20.60
2023-05-19T09:01:30.404Z,20.60
2023-05-19T09:03:59.743Z,21.20
2023-05-19T09:06:32.415Z,27.20
2023-05-19T09:09:01.107Z,20.60
2023-05-19T09:11:31.399Z,20.00
2023-05-19T09:14:00.176Z,18.60
2023-05-19T09:16:30.447Z,19.80
2023-05-19T09:19:01.183Z,26.60
2023-05-19T09:21:33.973Z,20.40
2023-05-19T09:24:06.820Z,21.40
2023-05-19T09:26:42.264Z,28.60
2023-05-19T09:29:15.016Z,23.80
2023-05-19T09:31:50.644Z,23.20
2023-05-19T09:34:19.563Z,23.80
2023-05-19T09:36:50.845Z,25.20
2023-05-19T09:39:21.103Z,21.00
2023-05-19T09:41:53.906Z,24.00
2023-05-19T09:44:29.713Z,24.40
2023-05-19T09:46:59.917Z,19.60
2023-05-19T09:49:31.416Z,27.60
2023-05-19T09:52:04.422Z,21.80
2023-05-19T09:54:35.405Z,27.40
2023-05-19T09:57:08.567Z,21.80
2023-05-19T09:59:39.029Z,22.40
2023-05-19T10:02:16.490Z,23.40
2023-05-19T10:04:47.687Z,27.00
2023-05-19T10:07:17.791Z,27.00
2023-05-19T10:09:47.293Z,28.40
2023-05-19T10:12:19.252Z,24.00
2023-05-19T10:14:49.900Z,23.20
2023-05-19T10:17:19.039Z,33.60
2023-05-19T10:19:51.728Z,19.00
2023-05-19T10:22:20.609Z,26.00
2023-05-19T10:24:49.451Z,27.20
2023-05-19T10:27:20.451Z,28.00
2023-05-19T10:29:52.989Z,17.00
2023-05-19T10:32:26.068Z,23.80
2023-05-19T10:35:25.682Z,23.20
2023-05-19T10:38:05.702Z,23.00
2023-05-19T10:40:38.109Z,22.40
2023-05-19T10:43:22.453Z,22.60
2023-05-19T10:45:54.409Z,23.60
2023-05-19T10:48:23.634Z,23.20
2023-05-19T10:50:55.200Z,24.60
2023-05-19T10:53:32.462Z,24.40
2023-05-19T10:56:04.359Z,25.60
2023-05-19T10:58:52.185Z,27.00
2023-05-19T11:01:22.325Z,26.40
2023-05-19T11:03:53.901Z,24.20
2023-05-19T11:06:28.309Z,24.40
2023-05-19T11:09:02.016Z,25.60
2023-05-19T11:11:46.897Z,27.60
2023-05-19T11:14:20.058Z,28.00
2023-05-19T11:16:49.816Z,25.40
2023-05-19T11:19:21.084Z,29.00
2023-05-19T11:21:52.517Z,30.60
2023-05-19T11:24:41.884Z,22.00
2023-05-19T11:27:21.185Z,27.60
2023-05-19T11:29:52.405Z,22.40
2023-05-19T11:32:22.736Z,29.80
2023-05-19T11:34:52.487Z,29.40
2023-05-19T11:37:21.314Z,27.00
2023-05-19T11:39:50.987Z,28.40
2023-05-19T11:42:20.202Z,34.75
2023-05-19T11:44:49.125Z,27.80
2023-05-19T11:47:19.252Z,27.80
2023-05-19T11:49:49.985Z,31.80
2023-05-19T11:52:18.904Z,27.40
2023-05-19T11:54:50.134Z,24.20
2023-05-19T11:57:18.983Z,26.40
2023-05-19T11:59:49.844Z,28.00
2023-05-19T12:02:21.491Z,24.80
2023-05-19T12:04:50.723Z,23.80
2023-05-19T12:07:22.919Z,23.20
2023-05-19T12:09:52.891Z,25.40
2023-05-19T12:12:22.636Z,26.00
2023-05-19T12:14:53.093Z,29.00
2023-05-19T12:17:24.214Z,29.80
2023-05-19T12:19:53.628Z,26.80
2023-05-19T12:22:22.426Z,24.40
2023-05-19T12:24:52.836Z,26.60
2023-05-19T12:27:24.282Z,24.20
2023-05-19T12:29:54.945Z,27.40
2023-05-19T12:32:26.601Z,30.40
2023-05-19T12:34:57.489Z,28.60
2023-05-19T12:37:30.120Z,24.60
2023-05-19T12:39:59.274Z,25.00
2023-05-19T12:42:31.514Z,24.40
2023-05-19T12:45:03.078Z,22.20
2023-05-19T12:47:36.618Z,23.60
2023-05-19T12:50:08.083Z,27.00
2023-05-19T12:52:43.478Z,26.00
2023-05-19T12:55:14.173Z,29.50
2023-05-19T12:57:45.307Z,31.60
2023-05-19T13:00:17.601Z,27.40
2023-05-19T13:03:05.716Z,26.40
2023-05-19T13:05:36.814Z,32.25
2023-05-19T13:08:08.082Z,28.20
2023-05-19T13:10:38.458Z,32.20
2023-05-19T13:13:08.333Z,35.50
2023-05-19T13:15:38.905Z,29.60
2023-05-19T13:18:10.395Z,30.40
2023-05-19T13:20:40.798Z,31.75
2023-05-19T13:23:11.811Z,32.25
2023-05-19T13:25:41.237Z,29.50
2023-05-19T13:28:11.000Z,30.80
2023-05-19T13:30:41.599Z,34.40
2023-05-19T13:33:12.032Z,34.25
2023-05-19T13:35:41.205Z,31.25
2023-05-19T13:38:11.263Z,31.50
2023-05-19T13:40:41.072Z,39.50
2023-05-19T13:43:09.913Z,34.25
2023-05-19T13:45:39.270Z,32.75
2023-05-19T13:48:08.616Z,40.50
2023-05-19T13:50:39.174Z,37.75
2023-05-19T13:53:08.342Z,36.75
2023-05-19T13:55:37.562Z,42.50
2023-05-19T13:58:06.233Z,34.25
2023-05-19T14:00:36.279Z,37.25
2023-05-19T14:03:05.248Z,34.25
2023-05-19T14:05:34.638Z,30.75
2023-05-19T14:08:05.580Z,36.00
2023-05-19T14:10:34.819Z,35.00
2023-05-19T14:13:30.243Z,33.00
2023-05-19T14:15:53.312Z,33.00
2023-05-19T14:18:22.036Z,33.00
2023-05-19T14:20:51.146Z,35.00
2023-05-19T14:23:21.707Z,33.50
2023-05-19T14:25:50.693Z,34.75
2023-05-19T14:28:19.399Z,32.00
2023-05-19T14:30:48.575Z,48.00
2023-05-19T14:33:17.574Z,44.75
2023-05-19T14:35:46.703Z,37.50
2023-05-19T14:38:15.460Z,33.75
2023-05-19T14:40:45.894Z,36.00
2023-05-19T14:43:14.479Z,26.50
2023-05-19T14:45:43.366Z,33.50
2023-05-19T14:48:12.481Z,38.25
2023-05-19T14:50:41.591Z,36.75
2023-05-19T14:53:10.539Z,51.50
2023-05-19T14:55:39.488Z,51.50
2023-05-19T14:58:23.585Z,48.75
2023-05-19T15:00:58.244Z,36.50
2023-05-19T15:03:27.105Z,40.00
2023-05-19T15:05:56.104Z,36.75
2023-05-19T15:08:24.782Z,35.00
2023-05-19T15:10:53.694Z,39.50
2023-05-19T15:13:23.694Z,50.25
2023-05-19T15:16:08.308Z,55.25
2023-05-19T15:18:44.352Z,39.00
2023-05-19T15:21:13.410Z,72.50
2023-05-19T15:23:42.423Z,64.75
2023-05-19T15:26:11.380Z,51.50
2023-05-19T15:28:41.582Z,49.75
2023-05-19T15:31:10.663Z,37.00
2023-05-19T15:33:39.286Z,34.75
2023-05-19T15:36:08.187Z,28.50
2023-05-19T15:38:37.724Z,35.25
2023-05-19T15:41:08.961Z,32.00
2023-05-19T15:43:37.612Z,33.75
2023-05-19T15:46:08.582Z,35.00
2023-05-19T15:48:37.649Z,38.75
2023-05-19T15:51:06.947Z,39.75
2023-05-19T15:53:35.679Z,34.75
2023-05-19T15:56:05.095Z,32.75
2023-05-19T15:58:33.907Z,36.00
2023-05-19T16:01:02.992Z,33.50
2023-05-19T16:03:33.118Z,33.25
2023-05-19T16:06:02.402Z,31.50
2023-05-19T16:08:31.432Z,36.25
2023-05-19T16:11:00.518Z,35.00
2023-05-19T16:13:30.456Z,35.50
2023-05-19T16:15:59.346Z,33.75
2023-05-19T16:18:29.235Z,38.25
2023-05-19T16:20:59.570Z,29.75
2023-05-19T16:23:28.254Z,35.25
2023-05-19T16:25:57.603Z,33.50
2023-05-19T16:28:26.368Z,35.50
2023-05-19T16:30:58.568Z,36.50
2023-05-19T16:33:27.436Z,36.75
2023-05-19T16:35:56.401Z,68.33
2023-05-19T16:38:26.815Z,37.00
2023-05-19T16:40:55.842Z,39.75
2023-05-19T16:43:24.515Z,38.25
2023-05-19T16:45:53.719Z,36.00
2023-05-19T16:48:22.678Z,36.25
2023-05-19T16:50:51.604Z,43.75
2023-05-19T16:53:20.222Z,38.00
2023-05-19T16:55:50.591Z,38.25
2023-05-19T16:58:19.209Z,38.75
2023-05-19T17:00:52.174Z,38.00
2023-05-19T17:03:21.181Z,36.00
2023-05-19T17:05:50.223Z,38.75
2023-05-19T17:08:18.907Z,38.75
2023-05-19T17:10:50.515Z,42.00
2023-05-19T17:13:19.174Z,36.00
2023-05-19T17:15:52.463Z,33.50
2023-05-19T17:18:21.493Z,34.00
2023-05-19T17:20:50.716Z,27.00
2023-05-19T17:23:19.401Z,44.50
2023-05-19T17:25:48.362Z,41.00
2023-05-19T17:28:18.304Z,35.25
2023-05-19T17:30:47.255Z,28.75
2023-05-19T17:33:15.904Z,35.75
2023-05-19T17:35:44.941Z,32.75
2023-05-19T17:38:13.613Z,34.25
2023-05-19T17:40:42.626Z,35.75
2023-05-19T17:43:11.349Z,37.25
2023-05-19T17:45:41.859Z,32.25
2023-05-19T17:48:10.514Z,35.50
2023-05-19T17:50:39.591Z,36.00
2023-05-19T17:53:08.692Z,44.50
2023-05-19T17:55:38.450Z,39.00
2023-05-19T17:58:07.609Z,44.75
2023-05-19T18:00:37.183Z,44.25
2023-05-19T18:03:08.280Z,46.50
2023-05-19T18:05:38.008Z,46.25
2023-05-19T18:08:09.609Z,46.75
2023-05-19T18:10:40.933Z,47.25
2023-05-19T18:13:11.497Z,45.50
2023-05-19T18:15:40.388Z,50.50
2023-05-19T18:18:11.024Z,52.50
2023-05-19T18:20:41.232Z,47.25
2023-05-19T18:23:09.884Z,48.25
2023-05-19T18:25:39.009Z,46.50
2023-05-19T18:28:07.855Z,45.00
2023-05-19T18:30:36.848Z,50.50
2023-05-19T18:33:07.326Z,41.75
2023-05-19T18:35:37.942Z,43.75
2023-05-19T18:38:06.558Z,35.75
2023-05-19T18:40:35.726Z,37.50
2023-05-19T18:43:04.654Z,44.00
2023-05-19T18:45:33.626Z,44.00
2023-05-19T18:48:02.240Z,40.50
2023-05-19T18:50:31.516Z,33.50
2023-05-19T18:53:01.810Z,54.50
2023-05-19T18:55:30.821Z,54.00
2023-05-19T18:57:59.410Z,48.00
2023-05-19T19:00:29.123Z,48.75
2023-05-19T19:02:57.824Z,51.00
2023-05-19T19:05:27.002Z,44.50
2023-05-19T19:07:55.707Z,44.25
2023-05-19T19:10:27.118Z,43.50
2023-05-19T19:12:55.870Z,44.50
2023-05-19T19:15:25.530Z,46.50
2023-05-19T19:17:54.281Z,41.50
2023-05-19T19:20:23.319Z,38.75
2023-05-19T19:22:53.063Z,44.50
2023-05-19T19:25:23.537Z,43.50
2023-05-19T19:27:53.831Z,46.50
2023-05-19T19:30:22.872Z,41.75
2023-05-19T19:32:51.535Z,42.50
2023-05-19T19:35:20.941Z,46.75
2023-05-19T19:37:51.749Z,51.25
2023-05-19T19:40:20.970Z,48.75
2023-05-19T19:42:49.773Z,53.50
2023-05-19T19:45:20.928Z,65.00
2023-05-19T19:47:49.908Z,46.25
2023-05-19T19:50:19.187Z,56.00
2023-05-19T19:52:47.910Z,55.75
2023-05-19T19:55:17.055Z,71.50
2023-05-19T19:57:49.298Z,61.50
2023-05-19T20:00:20.122Z,52.25
2023-05-19T20:03:03.578Z,53.00
2023-05-19T20:05:34.015Z,52.75
2023-05-19T20:08:02.721Z,49.75
2023-05-19T20:10:31.749Z,50.00
2023-05-19T20:13:00.554Z,52.25
2023-05-19T20:15:31.904Z,54.00
2023-05-19T20:18:00.645Z,53.00
2023-05-19T20:20:29.884Z,53.00
2023-05-19T20:22:58.553Z,51.75
2023-05-19T20:25:27.401Z,55.00
2023-05-19T20:27:56.180Z,55.00
2023-05-19T20:30:25.167Z,55.25
2023-05-19T20:32:55.254Z,54.25
2023-05-19T20:35:24.521Z,53.00
2023-05-19T20:37:53.083Z,54.75
2023-05-19T20:40:22.116Z,55.00
2023-05-19T20:42:51.945Z,55.50
2023-05-19T20:45:21.350Z,57.00
2023-05-19T20:47:49.973Z,54.75
2023-05-19T20:50:20.485Z,58.50
2023-05-19T20:52:49.183Z,54.00
2023-05-19T20:55:18.678Z,60.25
2023-05-19T20:57:47.432Z,56.75
2023-05-19T21:00:16.860Z,54.25
2023-05-19T21:02:45.790Z,59.00
2023-05-19T21:05:18.240Z,58.50
2023-05-19T21:07:48.287Z,58.00
2023-05-19T21:10:18.001Z,64.00
2023-05-19T21:12:46.790Z,60.75
2023-05-19T21:15:15.805Z,61.25
2023-05-19T21:17:44.464Z,60.00
2023-05-19T21:20:13.967Z,54.00
2023-05-19T21:22:42.626Z,59.75
2023-05-19T21:25:13.130Z,55.25
2023-05-19T21:27:42.209Z,54.25
2023-05-19T21:30:12.315Z,48.75
2023-05-19T21:32:42.225Z,52.50
2023-05-19T21:35:11.435Z,58.50
2023-05-19T21:37:40.429Z,55.25
2023-05-19T21:40:10.224Z,47.50
2023-05-19T21:42:40.200Z,49.75
2023-05-19T21:45:09.912Z,51.00
2023-05-19T21:47:38.719Z,45.50
2023-05-19T21:50:09.258Z,46.00
2023-05-19T21:52:38.807Z,44.25
2023-05-19T21:55:09.790Z,41.50
2023-05-19T21:57:38.605Z,30.50
2023-05-19T22:00:13.139Z,44.00
2023-05-19T22:02:42.263Z,40.00
2023-05-19T22:05:11.838Z,38.75
2023-05-19T22:07:40.642Z,47.25
2023-05-19T22:10:10.200Z,48.50
2023-05-19T22:12:38.819Z,52.25
2023-05-19T22:15:10.843Z,49.25
2023-05-19T22:17:39.547Z,48.75
2023-05-19T22:20:09.625Z,40.50
2023-05-19T22:22:38.305Z,47.75
2023-05-19T22:25:08.369Z,47.00
2023-05-19T22:27:36.996Z,43.25
2023-05-19T22:30:07.232Z,38.00
2023-05-19T22:32:37.179Z,40.75
2023-05-19T22:35:08.378Z,44.25
2023-05-19T22:37:37.079Z,46.50
2023-05-19T22:40:07.262Z,44.50
2023-05-19T22:42:35.907Z,47.50
2023-05-19T22:45:05.439Z,39.25
2023-05-19T22:47:34.334Z,37.25
2023-05-19T22:50:05.705Z,42.25
2023-05-19T22:52:34.506Z,35.75
2023-05-19T22:55:03.768Z,32.80
2023-05-19T22:57:32.964Z,40.25
2023-05-19T23:00:02.081Z,36.00
2023-05-19T23:02:31.572Z,34.20
2023-05-19T23:05:01.059Z,36.25
2023-05-19T23:07:31.498Z,41.75
2023-05-19T23:10:00.510Z,36.00
2023-05-19T23:12:29.130Z,35.80
2023-05-19T23:14:58.178Z,33.40
2023-05-19T23:17:26.897Z,30.40
2023-05-19T23:19:55.923Z,32.60
2023-05-19T23:22:24.668Z,32.00
2023-05-19T23:24:54.931Z,37.00
2023-05-19T23:27:23.448Z,27.20
2023-05-19T23:29:52.977Z,37.40
2023-05-19T23:32:21.720Z,33.00
2023-05-19T23:34:50.616Z,32.80
2023-05-19T23:37:19.386Z,37.50
2023-05-19T23:39:48.422Z,40.50
2023-05-19T23:42:18.444Z,32.25
2023-05-19T23:44:47.367Z,35.40
2023-05-19T23:47:15.999Z,37.75
2023-05-19T23:49:45.127Z,33.20
2023-05-19T23:52:14.227Z,36.75
2023-05-19T23:54:43.254Z,37.00
2023-05-19T23:57:11.976Z,36.50
2023-05-19T23:59:42.382Z,39.25
